createdAt,value
2018-07-01T00:00:09.437Z,14.90
2018-07-01T00:02:38.134Z,14.80
2018-07-01T00:05:07.188Z,14.80
2018-07-01T00:07:35.834Z,14.80
2018-07-01T00:10:05.130Z,14.90
2018-07-01T00:12:33.806Z,14.90
2018-07-01T00:15:02.479Z,14.90
2018-07-01T00:17:31.114Z,14.90
2018-07-01T00:19:59.724Z,14.90
2018-07-01T00:22:28.358Z,14.90
2018-07-01T00:24:56.995Z,14.70
2018-07-01T00:27:25.701Z,14.70
2018-07-01T00:29:54.346Z,14.60
2018-07-01T00:32:23.088Z,14.50
2018-07-01T00:34:51.689Z,14.50
2018-07-01T00:37:20.354Z,14.50
2018-07-01T00:39:48.967Z,14.50
2018-07-01T00:42:17.677Z,14.50
2018-07-01T00:44:46.368Z,14.50
2018-07-01T00:47:15.001Z,14.50
2018-07-01T00:49:43.654Z,14.50
2018-07-01T00:52:12.264Z,14.70
2018-07-01T00:54:40.961Z,14.60
2018-07-01T00:57:09.615Z,14.60
2018-07-01T00:59:38.211Z,14.60
2018-07-01T01:02:06.864Z,14.60
2018-07-01T01:04:35.516Z,14.50
2018-07-01T01:07:04.354Z,14.50
2018-07-01T01:09:32.959Z,14.60
2018-07-01T01:12:01.598Z,14.70
2018-07-01T01:14:30.268Z,14.70
2018-07-01T01:16:58.879Z,14.70
2018-07-01T01:19:27.528Z,14.70
2018-07-01T01:21:56.141Z,14.60
2018-07-01T01:24:24.750Z,14.60
2018-07-01T01:26:53.512Z,14.60
2018-07-01T01:29:22.138Z,14.50
2018-07-01T01:31:50.854Z,14.50
2018-07-01T01:34:19.540Z,14.50
2018-07-01T01:36:48.287Z,14.40
2018-07-01T01:39:23.575Z,14.40
2018-07-01T01:41:55.253Z,14.30
2018-07-01T01:44:29.062Z,14.20
2018-07-01T01:47:03.097Z,14.00
2018-07-01T01:50:12.371Z,13.90
2018-07-01T01:53:03.350Z,13.80
2018-07-01T01:55:43.202Z,13.70
2018-07-01T01:58:23.136Z,13.70
2018-07-01T02:00:56.725Z,13.70
2018-07-01T02:03:30.434Z,13.50
2018-07-01T02:06:13.312Z,13.50
2018-07-01T02:08:48.857Z,13.50
2018-07-01T02:11:17.556Z,13.60
2018-07-01T02:13:49.494Z,13.60
2018-07-01T02:16:21.832Z,13.60
2018-07-01T02:18:50.537Z,13.60
2018-07-01T02:21:19.235Z,13.60
2018-07-01T02:23:51.765Z,13.60
2018-07-01T02:26:20.457Z,13.60
2018-07-01T02:28:49.165Z,13.50
2018-07-01T02:31:17.779Z,13.30
2018-07-01T02:33:46.512Z,13.10
2018-07-01T02:36:15.111Z,13.10
2018-07-01T02:38:43.759Z,13.00
2018-07-01T02:41:12.388Z,13.00
2018-07-01T02:43:41.082Z,12.90
2018-07-01T02:46:09.693Z,12.80
2018-07-01T02:48:38.313Z,12.80
2018-07-01T02:51:07.101Z,12.70
2018-07-01T02:53:36.041Z,12.70
2018-07-01T02:56:05.012Z,12.80
2018-07-01T02:58:33.853Z,12.70
2018-07-01T03:01:02.551Z,12.50
2018-07-01T03:03:31.201Z,12.40
2018-07-01T03:05:59.938Z,12.30
2018-07-01T03:08:28.619Z,12.20
2018-07-01T03:10:57.245Z,12.10
2018-07-01T03:13:25.938Z,12.00
2018-07-01T03:15:54.568Z,12.00
2018-07-01T03:18:23.265Z,12.00
2018-07-01T03:20:51.927Z,11.90
2018-07-01T03:23:20.643Z,11.90
2018-07-01T03:25:49.316Z,11.80
2018-07-01T03:28:17.972Z,11.80
2018-07-01T03:30:46.719Z,11.70
2018-07-01T03:33:15.361Z,11.80
2018-07-01T03:35:44.025Z,11.80
2018-07-01T03:38:12.663Z,11.70
2018-07-01T03:40:41.409Z,11.70
2018-07-01T03:43:10.065Z,11.70
2018-07-01T03:45:39.152Z,11.70
2018-07-01T03:48:07.906Z,11.80
2018-07-01T03:50:36.527Z,11.90
2018-07-01T03:53:05.198Z,11.90
2018-07-01T03:55:33.895Z,11.90
2018-07-01T03:58:02.524Z,12.00
2018-07-01T04:00:31.199Z,12.10
2018-07-01T04:02:59.822Z,12.20
2018-07-01T04:05:28.437Z,12.30
2018-07-01T04:07:57.140Z,12.40
2018-07-01T04:10:25.752Z,12.40
2018-07-01T04:12:54.382Z,12.50
2018-07-01T04:15:23.023Z,12.60
2018-07-01T04:17:51.654Z,12.70
2018-07-01T04:20:20.300Z,12.90
2018-07-01T04:22:48.910Z,13.10
2018-07-01T04:25:17.548Z,13.20
2018-07-01T04:27:46.167Z,13.40
2018-07-01T04:30:14.816Z,13.60
2018-07-01T04:32:43.434Z,13.70
2018-07-01T04:35:12.096Z,13.90
2018-07-01T04:37:40.801Z,14.10
2018-07-01T04:40:09.420Z,14.20
2018-07-01T04:42:38.058Z,14.40
2018-07-01T04:45:06.677Z,14.40
2018-07-01T04:47:35.332Z,14.60
2018-07-01T04:50:04.136Z,14.70
2018-07-01T04:52:32.788Z,14.70
2018-07-01T04:55:01.509Z,14.80
2018-07-01T04:57:30.123Z,15.00
2018-07-01T04:59:58.776Z,15.20
2018-07-01T05:02:27.403Z,15.30
2018-07-01T05:04:56.103Z,15.40
2018-07-01T05:07:24.738Z,15.50
2018-07-01T05:09:53.424Z,15.60
2018-07-01T05:12:22.183Z,15.70
2018-07-01T05:14:50.832Z,15.80
2018-07-01T05:17:19.519Z,15.90
2018-07-01T05:19:48.177Z,16.00
2018-07-01T05:22:16.852Z,16.10
2018-07-01T05:24:45.570Z,16.30
2018-07-01T05:27:14.237Z,17.10
2018-07-01T05:29:42.891Z,19.20
2018-07-01T05:32:11.594Z,22.00
2018-07-01T05:34:40.260Z,24.40
2018-07-01T05:37:08.977Z,26.60
2018-07-01T05:39:37.606Z,27.90
2018-07-01T05:42:06.406Z,29.30
2018-07-01T05:44:35.045Z,30.00
2018-07-01T05:47:03.697Z,30.50
2018-07-01T05:49:32.338Z,31.30
2018-07-01T05:52:00.945Z,30.90
2018-07-01T05:54:29.611Z,30.70
2018-07-01T05:56:58.209Z,30.70
2018-07-01T05:59:26.863Z,30.30
2018-07-01T06:01:55.503Z,30.40
2018-07-01T06:04:24.241Z,30.50
2018-07-01T06:06:53.026Z,30.10
2018-07-01T06:09:21.648Z,29.60
2018-07-01T06:11:50.353Z,28.70
2018-07-01T06:14:19.037Z,28.60
2018-07-01T06:16:47.734Z,28.40
2018-07-01T06:19:16.349Z,29.20
2018-07-01T06:21:45.004Z,29.80
2018-07-01T06:24:13.920Z,30.70
2018-07-01T06:26:42.610Z,30.60
2018-07-01T06:29:11.248Z,30.30
2018-07-01T06:31:39.889Z,30.00
2018-07-01T06:34:08.570Z,29.80
2018-07-01T06:36:37.194Z,29.70
2018-07-01T06:39:07.982Z,29.50
2018-07-01T06:41:36.584Z,29.20
2018-07-01T06:44:05.495Z,29.80
2018-07-01T06:46:34.193Z,29.90
2018-07-01T06:49:02.942Z,29.90
2018-07-01T06:51:31.591Z,29.90
2018-07-01T06:54:00.253Z,29.70
2018-07-01T06:56:29.027Z,29.60
2018-07-01T06:58:57.774Z,29.40
2018-07-01T07:01:26.460Z,28.60
2018-07-01T07:03:55.177Z,29.00
2018-07-01T07:06:23.847Z,28.70
2018-07-01T07:08:52.547Z,28.50
2018-07-01T07:11:21.243Z,28.20
2018-07-01T07:13:49.895Z,28.60
2018-07-01T07:16:18.589Z,28.50
2018-07-01T07:18:47.260Z,28.10
2018-07-01T07:21:15.956Z,27.90
2018-07-01T07:23:44.611Z,26.90
2018-07-01T07:26:13.330Z,26.30
2018-07-01T07:28:42.118Z,26.10
2018-07-01T07:31:10.866Z,25.70
2018-07-01T07:33:39.573Z,25.10
2018-07-01T07:36:08.237Z,25.00
2018-07-01T07:38:36.932Z,25.20
2018-07-01T07:41:05.595Z,25.40
2018-07-01T07:43:34.280Z,26.00
2018-07-01T07:46:02.954Z,26.60
2018-07-01T07:48:31.589Z,26.60
2018-07-01T07:51:00.293Z,26.40
2018-07-01T07:53:28.959Z,26.30
2018-07-01T07:55:57.647Z,26.20
2018-07-01T07:58:26.265Z,26.10
2018-07-01T08:00:54.938Z,26.10
2018-07-01T08:03:23.887Z,26.10
2018-07-01T08:05:52.490Z,26.10
2018-07-01T08:08:21.180Z,26.10
2018-07-01T08:10:49.805Z,25.90
2018-07-01T08:13:18.477Z,25.90
2018-07-01T08:15:47.113Z,26.10
2018-07-01T08:18:15.760Z,26.40
2018-07-01T08:20:44.382Z,26.60
2018-07-01T08:23:13.051Z,26.80
2018-07-01T08:25:41.760Z,27.00
2018-07-01T08:28:10.382Z,27.20
2018-07-01T08:30:39.027Z,27.40
2018-07-01T08:33:07.644Z,27.20
2018-07-01T08:35:36.383Z,27.00
2018-07-01T08:38:05.082Z,26.40
2018-07-01T08:40:33.749Z,26.20
2018-07-01T08:43:02.402Z,26.30
2018-07-01T08:45:31.019Z,26.10
2018-07-01T08:47:59.684Z,26.70
2018-07-01T08:50:28.402Z,27.30
2018-07-01T08:52:57.042Z,27.20
2018-07-01T08:55:25.742Z,27.20
2018-07-01T08:57:54.439Z,27.60
2018-07-01T09:00:23.142Z,27.90
2018-07-01T09:02:51.827Z,27.70
2018-07-01T09:05:20.466Z,27.50
2018-07-01T09:07:49.158Z,27.70
2018-07-01T09:10:17.785Z,28.30
2018-07-01T09:12:46.441Z,28.60
2018-07-01T09:15:15.051Z,28.50
2018-07-01T09:17:43.689Z,28.20
2018-07-01T09:20:12.352Z,28.60
2018-07-01T09:22:40.960Z,29.00
2018-07-01T09:25:09.635Z,29.00
2018-07-01T09:27:38.279Z,28.50
2018-07-01T09:30:07.119Z,28.10
2018-07-01T09:32:35.804Z,28.60
2018-07-01T09:35:04.417Z,29.10
2018-07-01T09:40:01.320Z,29.60
2018-07-01T09:42:29.974Z,29.50
2018-07-01T09:44:58.662Z,29.10
2018-07-01T09:47:27.254Z,29.10
2018-07-01T09:49:55.909Z,28.60
2018-07-01T09:52:24.566Z,28.70
2018-07-01T09:54:53.170Z,28.50
2018-07-01T09:57:21.829Z,28.90
2018-07-01T10:02:18.841Z,28.70
2018-07-01T10:04:47.520Z,28.60
2018-07-01T10:07:16.173Z,28.90
2018-07-01T10:09:44.860Z,29.40
2018-07-01T10:12:13.515Z,29.20
2018-07-01T10:14:42.240Z,29.50
2018-07-01T10:17:10.976Z,30.20
2018-07-01T10:19:39.588Z,30.50
2018-07-01T10:22:08.224Z,30.20
2018-07-01T10:24:36.918Z,29.90
2018-07-01T10:27:05.585Z,29.80
2018-07-01T10:29:34.208Z,29.80
2018-07-01T10:32:02.884Z,30.00
2018-07-01T10:34:31.506Z,29.70
2018-07-01T10:37:00.254Z,29.90
2018-07-01T10:39:28.869Z,29.50
2018-07-01T10:41:57.518Z,29.60
2018-07-01T10:44:26.163Z,28.80
2018-07-01T10:46:54.790Z,28.30
2018-07-01T10:49:23.472Z,28.00
2018-07-01T10:51:52.291Z,28.10
2018-07-01T10:54:20.972Z,28.40
2018-07-01T10:56:49.597Z,28.50
2018-07-01T10:59:18.204Z,28.50
2018-07-01T11:01:46.864Z,28.70
2018-07-01T11:04:15.486Z,29.20
2018-07-01T11:06:44.146Z,29.30
2018-07-01T11:09:13.381Z,29.30
2018-07-01T11:11:42.126Z,29.10
2018-07-01T11:14:10.785Z,28.40
2018-07-01T11:16:39.457Z,28.00
2018-07-01T11:19:08.224Z,27.60
2018-07-01T11:21:36.903Z,27.20
2018-07-01T11:24:05.678Z,27.20
2018-07-01T11:26:34.499Z,27.10
2018-07-01T11:29:03.094Z,26.80
2018-07-01T11:31:31.753Z,26.40
2018-07-01T11:34:00.449Z,26.10
2018-07-01T11:36:29.163Z,25.90
2018-07-01T11:38:57.873Z,25.70
2018-07-01T11:41:26.620Z,25.60
2018-07-01T11:43:55.309Z,25.50
2018-07-01T11:46:24.017Z,25.50
2018-07-01T11:48:52.728Z,25.40
2018-07-01T11:51:21.438Z,25.50
2018-07-01T11:53:50.087Z,25.40
2018-07-01T11:56:18.776Z,25.40
2018-07-01T11:58:47.369Z,25.60
2018-07-01T12:01:16.141Z,25.70
2018-07-01T12:03:44.831Z,25.60
2018-07-01T12:06:13.488Z,25.40
2018-07-01T12:08:42.319Z,25.20
2018-07-01T12:11:10.943Z,25.10
2018-07-01T12:13:39.671Z,25.10
2018-07-01T12:16:08.273Z,24.80
2018-07-01T12:18:36.947Z,24.90
2018-07-01T12:21:05.610Z,25.00
2018-07-01T12:23:34.380Z,24.80
2018-07-01T12:26:02.979Z,24.80
2018-07-01T12:28:31.623Z,24.70
2018-07-01T12:31:00.278Z,24.80
2018-07-01T12:33:28.888Z,24.80
2018-07-01T12:35:57.513Z,25.00
2018-07-01T12:38:26.167Z,25.00
2018-07-01T12:40:54.825Z,25.10
2018-07-01T12:43:23.437Z,25.20
2018-07-01T12:45:52.103Z,25.00
2018-07-01T12:48:20.775Z,24.80
2018-07-01T12:50:49.462Z,24.70
2018-07-01T12:53:18.149Z,24.80
2018-07-01T12:55:47.081Z,24.90
2018-07-01T12:58:15.801Z,24.90
2018-07-01T13:00:44.540Z,24.70
2018-07-01T13:03:13.240Z,24.60
2018-07-01T13:05:41.959Z,24.40
2018-07-01T13:08:10.649Z,24.30
2018-07-01T13:10:39.352Z,24.30
2018-07-01T13:13:08.025Z,24.40
2018-07-01T13:15:37.003Z,24.50
2018-07-01T13:18:05.981Z,24.60
2018-07-01T13:20:34.634Z,24.50
2018-07-01T13:23:03.245Z,24.60
2018-07-01T13:25:32.100Z,24.50
2018-07-01T13:28:00.702Z,24.50
2018-07-01T13:30:29.401Z,24.70
2018-07-01T13:32:58.028Z,24.70
2018-07-01T13:35:26.647Z,24.60
2018-07-01T13:37:55.297Z,24.60
2018-07-01T13:40:23.917Z,24.60
2018-07-01T13:42:52.618Z,24.50
2018-07-01T13:45:21.203Z,24.30
2018-07-01T13:47:49.885Z,24.30
2018-07-01T13:50:18.546Z,24.40
2018-07-01T13:52:47.169Z,24.40
2018-07-01T13:55:15.838Z,24.40
2018-07-01T13:57:44.522Z,24.40
2018-07-01T14:02:41.575Z,24.60
2018-07-01T14:05:10.224Z,24.60
2018-07-01T14:07:38.854Z,24.70
2018-07-01T14:10:07.557Z,24.70
2018-07-01T14:12:36.258Z,24.90
2018-07-01T14:15:05.108Z,25.00
2018-07-01T14:17:33.743Z,25.10
2018-07-01T14:20:02.403Z,25.20
2018-07-01T14:22:31.043Z,25.20
2018-07-01T14:24:59.667Z,25.30
2018-07-01T14:27:28.339Z,25.40
2018-07-01T14:29:56.967Z,25.30
2018-07-01T14:32:25.623Z,25.40
2018-07-01T14:34:54.285Z,25.50
2018-07-01T14:37:22.960Z,25.50
2018-07-01T14:39:51.612Z,25.40
2018-07-01T14:42:20.262Z,25.40
2018-07-01T14:44:48.931Z,25.40
2018-07-01T14:47:17.542Z,25.50
2018-07-01T14:49:46.179Z,25.60
2018-07-01T14:52:14.840Z,25.70
2018-07-01T14:54:43.504Z,25.90
2018-07-01T14:57:12.150Z,26.00
2018-07-01T14:59:40.829Z,26.20
2018-07-01T15:02:09.502Z,26.20
2018-07-01T15:04:38.132Z,26.50
2018-07-01T15:09:35.119Z,26.80
2018-07-01T15:12:03.818Z,27.00
2018-07-01T15:14:32.474Z,27.10
2018-07-01T15:17:01.171Z,27.20
2018-07-01T15:19:29.845Z,27.20
2018-07-01T15:21:58.543Z,27.20
2018-07-01T15:24:27.283Z,27.20
2018-07-01T15:26:55.946Z,27.30
2018-07-01T15:29:24.617Z,27.30
2018-07-01T15:31:53.354Z,27.00
2018-07-01T15:34:22.014Z,26.90
2018-07-01T15:36:50.678Z,27.10
2018-07-01T15:39:19.417Z,27.30
2018-07-01T15:41:48.057Z,27.20
2018-07-01T15:44:16.727Z,27.10
2018-07-01T15:46:45.372Z,27.00
2018-07-01T15:49:14.132Z,27.00
2018-07-01T15:51:42.838Z,27.00
2018-07-01T15:56:39.792Z,26.90
2018-07-01T15:59:08.458Z,27.00
2018-07-01T16:01:37.062Z,27.10
2018-07-01T16:06:34.209Z,27.20
2018-07-01T16:09:03.230Z,27.10
2018-07-01T16:11:31.872Z,27.20
2018-07-01T16:14:00.528Z,27.10
2018-07-01T16:16:29.168Z,27.20
2018-07-01T16:18:57.847Z,27.30
2018-07-01T16:21:26.496Z,27.40
2018-07-01T16:23:55.255Z,27.40
2018-07-01T16:26:29.416Z,27.20
2018-07-01T16:29:00.524Z,27.00
2018-07-01T16:31:30.924Z,27.00
2018-07-01T16:33:59.637Z,26.90
2018-07-01T16:36:29.442Z,27.00
2018-07-01T16:38:58.218Z,26.90
2018-07-01T16:41:27.013Z,26.90
2018-07-01T16:43:56.054Z,26.90
2018-07-01T16:46:24.700Z,26.90
2018-07-01T16:48:53.364Z,27.00
2018-07-01T16:51:22.037Z,27.00
2018-07-01T16:53:50.777Z,26.90
2018-07-01T16:56:19.493Z,26.80
2018-07-01T16:58:48.118Z,26.70
2018-07-01T17:01:16.862Z,26.50
2018-07-01T17:03:45.523Z,26.40
2018-07-01T17:06:14.736Z,26.30
2018-07-01T17:08:43.381Z,26.10
2018-07-01T17:11:12.016Z,25.80
2018-07-01T17:13:40.847Z,25.70
2018-07-01T17:16:09.475Z,25.60
2018-07-01T17:18:38.672Z,25.60
2018-07-01T17:21:07.826Z,25.60
2018-07-01T17:23:36.622Z,25.60
2018-07-01T17:26:05.733Z,25.50
2018-07-01T17:28:34.355Z,25.40
2018-07-01T17:31:08.121Z,25.40
2018-07-01T17:33:37.042Z,25.30
2018-07-01T17:36:06.136Z,25.20
2018-07-01T17:38:34.991Z,25.20
2018-07-01T17:41:03.675Z,25.20
2018-07-01T17:43:32.335Z,25.10
2018-07-01T17:46:00.950Z,25.00
2018-07-01T17:48:29.642Z,25.00
2018-07-01T17:50:58.306Z,25.00
2018-07-01T17:53:38.090Z,25.00
2018-07-01T17:56:06.805Z,24.90
2018-07-01T17:58:35.498Z,24.80
2018-07-01T18:01:04.139Z,24.80
2018-07-01T18:03:32.805Z,24.70
2018-07-01T18:06:01.509Z,24.60
2018-07-01T18:08:30.207Z,24.50
2018-07-01T18:10:58.869Z,24.40
2018-07-01T18:13:28.431Z,24.30
2018-07-01T18:15:57.132Z,24.30
2018-07-01T18:18:25.914Z,24.20
2018-07-01T18:20:54.556Z,24.10
2018-07-01T18:23:53.705Z,24.00
2018-07-01T18:25:51.863Z,23.90
2018-07-01T18:28:34.106Z,23.80
2018-07-01T18:30:49.203Z,23.70
2018-07-01T18:33:17.866Z,23.70
2018-07-01T18:35:46.614Z,23.60
2018-07-01T18:38:15.297Z,23.50
2018-07-01T18:40:43.958Z,23.40
2018-07-01T18:43:12.678Z,23.30
2018-07-01T18:45:41.391Z,23.20
2018-07-01T18:48:10.080Z,23.10
2018-07-01T18:50:38.763Z,23.00
2018-07-01T18:53:07.454Z,22.90
2018-07-01T18:55:36.094Z,22.80
2018-07-01T18:58:04.825Z,22.70
2018-07-01T19:00:33.497Z,22.50
2018-07-01T19:03:02.194Z,22.40
2018-07-01T19:05:30.905Z,22.30
2018-07-01T19:07:59.640Z,22.20
2018-07-01T19:10:28.552Z,22.10
2018-07-01T19:12:57.265Z,22.00
2018-07-01T19:15:26.159Z,21.90
2018-07-01T19:17:54.831Z,21.70
2018-07-01T19:20:23.630Z,21.60
2018-07-01T19:22:52.679Z,21.50
2018-07-01T19:25:21.437Z,21.40
2018-07-01T19:27:50.603Z,21.30
2018-07-01T19:30:19.421Z,21.20
2018-07-01T19:32:48.128Z,21.10
2018-07-01T19:35:16.910Z,21.00
2018-07-01T19:37:45.551Z,20.90
2018-07-01T19:40:14.265Z,20.80
2018-07-01T19:42:43.076Z,20.60
2018-07-01T19:45:11.682Z,20.40
2018-07-01T19:47:40.469Z,20.10
2018-07-01T19:50:09.148Z,19.90
2018-07-01T19:52:37.839Z,19.60
2018-07-01T19:55:06.589Z,19.50
2018-07-01T19:57:35.257Z,19.20
2018-07-01T20:00:04.585Z,19.00
2018-07-01T20:02:33.246Z,18.80
2018-07-01T20:05:01.940Z,18.60
2018-07-01T20:07:30.582Z,18.30
2018-07-01T20:09:59.392Z,18.20
2018-07-01T20:12:28.086Z,18.10
2018-07-01T20:14:56.877Z,18.10
2018-07-01T20:17:25.524Z,17.90
2018-07-01T20:19:54.343Z,17.90
2018-07-01T20:22:23.116Z,17.90
2018-07-01T20:24:51.801Z,17.80
2018-07-01T20:27:20.480Z,17.90
2018-07-01T20:29:49.172Z,17.80
2018-07-01T20:32:17.870Z,17.80
2018-07-01T20:40:28.036Z,17.70
2018-07-01T20:42:57.098Z,17.60
2018-07-01T20:45:25.885Z,17.40
2018-07-01T20:47:54.594Z,17.30
2018-07-01T20:50:23.309Z,17.20
2018-07-01T20:52:52.062Z,17.10
2018-07-01T20:55:20.903Z,17.10
2018-07-01T20:57:49.679Z,17.00
2018-07-01T21:00:18.403Z,16.80
2018-07-01T21:02:47.245Z,16.70
2018-07-01T21:05:16.679Z,16.70
2018-07-01T21:07:45.598Z,16.50
2018-07-01T21:10:14.358Z,16.50
2018-07-01T21:12:44.005Z,16.40
2018-07-01T21:15:12.861Z,16.40
2018-07-01T21:17:41.865Z,16.40
2018-07-01T21:20:10.745Z,16.20
2018-07-01T21:22:39.911Z,16.20
2018-07-01T21:25:08.950Z,16.20
2018-07-01T21:27:37.743Z,16.10
2018-07-01T21:30:06.747Z,16.00
2018-07-01T21:32:35.435Z,16.00
2018-07-01T21:35:04.316Z,15.90
2018-07-01T21:37:33.114Z,15.80
2018-07-01T21:40:01.841Z,15.60
2018-07-01T21:42:30.672Z,15.50
2018-07-01T21:47:28.043Z,15.40
2018-07-01T21:49:56.929Z,15.30
2018-07-01T21:52:25.577Z,15.20
2018-07-01T21:54:54.487Z,15.20
2018-07-01T21:57:23.351Z,15.20
2018-07-01T21:59:52.717Z,15.20
2018-07-01T22:02:22.849Z,15.10
2018-07-01T22:04:58.436Z,15.10
2018-07-01T22:07:27.400Z,15.00
2018-07-01T22:09:56.269Z,15.00
2018-07-01T22:12:36.239Z,15.00
2018-07-01T22:15:21.416Z,15.00
2018-07-01T22:17:50.294Z,15.10
2018-07-01T22:20:19.055Z,15.20
2018-07-01T22:22:47.772Z,15.20
2018-07-01T22:25:16.967Z,15.10
2018-07-01T22:27:46.125Z,15.00
2018-07-01T22:30:15.016Z,15.00
2018-07-01T22:32:43.842Z,14.90
2018-07-01T22:35:12.743Z,14.80
2018-07-01T22:37:41.758Z,14.80
2018-07-01T22:40:10.778Z,14.70
2018-07-01T22:42:39.679Z,14.70
2018-07-01T22:45:08.512Z,14.60
2018-07-01T22:47:37.297Z,14.50
2018-07-01T22:50:06.305Z,14.50
2018-07-01T22:52:35.503Z,14.30
2018-07-01T22:55:04.267Z,14.20
2018-07-01T22:57:33.034Z,14.20
2018-07-01T23:00:03.157Z,14.20
2018-07-01T23:02:53.387Z,14.10
2018-07-01T23:05:25.689Z,14.20
2018-07-01T23:07:54.595Z,14.20
2018-07-01T23:10:24.387Z,14.20
2018-07-01T23:12:53.844Z,14.20
2018-07-01T23:15:22.544Z,14.20
2018-07-01T23:17:51.234Z,14.20
2018-07-01T23:20:19.903Z,14.20
2018-07-01T23:22:48.587Z,14.00
2018-07-01T23:25:17.234Z,13.90
2018-07-01T23:27:46.572Z,13.80
2018-07-01T23:30:15.246Z,13.60
2018-07-01T23:32:44.373Z,13.60
2018-07-01T23:35:13.165Z,13.50
2018-07-01T23:37:41.971Z,13.30
2018-07-01T23:40:11.284Z,13.20
2018-07-01T23:42:40.690Z,13.20
2018-07-01T23:45:11.403Z,13.10
2018-07-01T23:50:08.687Z,12.90
2018-07-01T23:52:37.469Z,12.80
2018-07-01T23:55:06.838Z,12.70
2018-07-01T23:57:35.538Z,12.70
